Time;durP1;ratioP1;P1;durP2;ratioP2;P2;SDS_P1;SDS_P2;PMS_P1;PMS_P2;Temp;Humidity;BMP_temperature;BMP_pressure;BME280_temperature;BME280_humidity;BME280_pressure;Samples;Min_cycle;Max_cycle;Signal;HPM_P1;HPM_P2
2021/12/24 00:00:48;;;;;;;43.85;21.30;;;4.80;99.90;;;;;;5041051;28;20035;-79
2021/12/24 00:03:14;;;;;;;42.85;21.10;;;4.80;99.90;;;;;;5042726;28;20048;-77
2021/12/24 00:05:40;;;;;;;42.20;20.45;;;4.80;99.90;;;;;;5024954;28;20093;-81
2021/12/24 00:08:06;;;;;;;43.78;21.77;;;4.80;99.90;;;;;;5041525;28;20036;-79
2021/12/24 00:10:33;;;;;;;42.42;20.40;;;4.80;99.90;;;;;;5042835;28;20022;-79
2021/12/24 00:13:08;;;;;;;39.70;19.95;;;4.90;99.90;;;;;;5041944;28;20028;-78
2021/12/24 00:15:55;;;;;;;43.80;21.85;;;4.90;99.90;;;;;;5041196;28;20032;-80
2021/12/24 00:18:32;;;;;;;41.25;20.30;;;4.90;99.90;;;;;;5046904;28;20048;-80
2021/12/24 00:37:21;;;;;;;33.03;16.08;;;;;;;;;;5046223;28;20116;-79
2021/12/24 00:39:56;;;;;;;34.63;16.67;;;;;;;;;;5026683;28;20049;-80
2021/12/24 00:42:22;;;;;;;33.60;16.77;;;;;;;;;;5026221;28;20033;-78
2021/12/24 00:44:48;;;;;;;30.58;16.10;;;;;;;;;;5045591;28;20132;-81
2021/12/24 00:47:14;;;;;;;30.35;15.40;;;;;;;;;;5044483;28;20033;-79
2021/12/24 00:49:42;;;;;;;26.15;14.95;;;;;;;;;;5027540;28;20034;-78
2021/12/24 00:55:02;;;;;;;29.15;16.35;;;;;;;;;;5057434;28;20024;-78
2021/12/24 00:57:29;;;;;;;33.10;15.98;;;;;;;;;;5056191;28;20094;-79
2021/12/24 00:59:55;;;;;;;29.60;15.98;;;;;;;;;;5056836;28;20546;-80
2021/12/24 01:02:21;;;;;;;28.20;14.50;;;;;;;;;;5056265;28;20041;-77
2021/12/24 01:04:47;;;;;;;26.90;14.90;;;;;;;;;;5057965;28;20077;-77
2021/12/24 01:07:13;;;;;;;26.20;14.35;;;;;;;;;;5056390;28;20022;-79
2021/12/24 01:09:39;;;;;;;26.77;13.60;;;;;;;;;;5057853;28;20025;-79
2021/12/24 01:12:05;;;;;;;26.70;14.68;;;;;;;;;;5047783;28;20026;-79
2021/12/24 01:14:31;;;;;;;25.83;14.65;;;;;;;;;;5044575;28;20049;-79
2021/12/24 01:17:13;;;;;;;27.77;14.77;;;;;;;;;;5049959;28;20148;-79
2021/12/24 01:19:42;;;;;;;28.48;13.95;;;;;;;;;;5040456;28;20020;-77
2021/12/24 01:24:44;;;;;;;31.48;14.73;;;;;;;;;;5046410;28;20060;-79
2021/12/24 01:38:25;;;;;;;27.70;15.60;;;;;;;;;;5051743;28;20513;-78
2021/12/24 01:43:23;;;;;;;28.83;15.20;;;;;;;;;;5048697;28;19915;-79
2021/12/24 01:45:50;;;;;;;27.58;15.77;;;;;;;;;;5047103;28;20059;-80
2021/12/24 01:48:16;;;;;;;28.73;15.75;;;;;;;;;;5032924;28;20030;-79
2021/12/24 01:50:45;;;;;;;25.13;14.70;;;;;;;;;;5040013;28;20084;-78
2021/12/24 01:53:11;;;;;;;28.52;15.38;;;;;;;;;;5056114;28;20481;-77
2021/12/24 01:55:38;;;;;;;30.13;16.05;;;;;;;;;;5047879;28;20033;-79
2021/12/24 01:58:04;;;;;;;24.17;15.13;;;;;;;;;;5045003;28;20053;-79
2021/12/24 02:00:32;;;;;;;25.88;15.20;;;;;;;;;;5048811;28;20026;-81
2021/12/24 02:02:59;;;;;;;26.15;15.02;;;;;;;;;;5049996;28;20022;-79
2021/12/24 02:05:25;;;;;;;27.20;14.88;;;;;;;;;;5052323;28;20475;-77
2021/12/24 02:07:51;;;;;;;28.17;14.02;;;;;;;;;;5037671;28;20045;-77
2021/12/24 02:10:18;;;;;;;27.38;14.82;;;;;;;;;;5053848;28;20117;-78
2021/12/24 02:12:44;;;;;;;26.08;14.85;;;;;;;;;;5045810;28;20025;-80
2021/12/24 02:15:18;;;;;;;28.60;13.63;;;;;;;;;;5028357;28;20030;-81
2021/12/24 02:28:39;;;;;;;23.23;12.98;;;;;;;;;;5045411;28;19912;-78
2021/12/24 02:31:10;;;;;;;24.25;13.07;;;;;;;;;;5045272;28;20014;-80
2021/12/24 02:33:36;;;;;;;25.15;13.77;;;;;;;;;;5035222;28;20048;-77
2021/12/24 02:36:03;;;;;;;24.33;12.63;;;;;;;;;;5056065;28;20013;-77
2021/12/24 02:38:29;;;;;;;26.65;12.98;;;;;;;;;;5056716;28;20018;-77
2021/12/24 02:40:55;;;;;;;25.58;13.77;;;;;;;;;;5030117;28;20503;-79
2021/12/24 02:43:23;;;;;;;22.45;12.73;;;;;;;;;;5025885;28;20390;-77
2021/12/24 02:45:52;;;;;;;28.88;13.55;;;;;;;;;;5023078;28;20017;-79
2021/12/24 02:56:26;;;;;;;;;;;;;;;;;;5038118;28;20045;-84
2021/12/24 02:58:52;;;;;;;22.17;12.65;;;;;;;;;;5021689;28;19927;-83
2021/12/24 03:01:20;;;;;;;23.75;12.82;;;;;;;;;;5031176;28;20010;-80
2021/12/24 03:03:48;;;;;;;20.42;12.48;;;;;;;;;;5057825;28;20017;-82
2021/12/24 03:06:18;;;;;;;22.80;12.30;;;;;;;;;;5047202;28;20103;-84
2021/12/24 03:08:44;;;;;;;19.77;13.02;;;;;;;;;;5041984;28;20500;-83
2021/12/24 03:11:10;;;;;;;21.00;12.80;;;;;;;;;;5023297;28;20056;-83
2021/12/24 03:13:37;;;;;;;24.00;13.23;;;;;;;;;;5041842;28;20075;-85
2021/12/24 03:16:03;;;;;;;21.42;12.63;;;;;;;;;;5024156;28;20490;-85
2021/12/24 03:18:33;;;;;;;21.17;12.80;;;;;;;;;;5042476;28;20056;-84
2021/12/24 03:21:27;;;;;;;20.77;12.48;;;;;;;;;;5032178;28;20028;-85
2021/12/24 03:26:39;;;;;;;21.00;12.77;;;;;;;;;;5047444;28;20033;-83
2021/12/24 03:29:07;;;;;;;20.60;12.35;;;;;;;;;;5051757;28;20079;-83
2021/12/24 03:31:33;;;;;;;17.95;11.68;;;;;;;;;;5033087;28;20037;-83
2021/12/24 03:34:00;;;;;;;17.83;11.85;;;;;;;;;;5030646;28;20061;-85
2021/12/24 03:36:29;;;;;;;22.30;12.82;;;;;;;;;;5050246;28;20029;-82
2021/12/24 03:38:55;;;;;;;18.75;12.20;;;;;;;;;;5042967;28;20510;-82
2021/12/24 03:41:21;;;;;;;20.67;12.73;;;;;;;;;;5021948;28;20079;-80
2021/12/24 03:43:47;;;;;;;21.30;12.20;;;;;;;;;;5041822;28;20025;-81
2021/12/24 03:46:17;;;;;;;19.90;11.70;;;;;;;;;;5045824;28;20095;-83
2021/12/24 03:48:54;;;;;;;20.48;12.23;;;;;;;;;;5028331;28;20418;-80
2021/12/24 03:56:32;;;;;;;20.38;13.13;;;;;;;;;;5042921;28;20032;-81
2021/12/24 03:58:58;;;;;;;20.13;12.82;;;;;;;;;;5025368;28;20025;-81
2021/12/24 04:01:24;;;;;;;22.95;14.10;;;;;;;;;;5043339;28;20390;-81
2021/12/24 04:03:50;;;;;;;23.77;13.45;;;;;;;;;;5046412;28;20041;-81
2021/12/24 04:06:16;;;;;;;22.92;13.85;;;;;;;;;;5045647;28;20108;-82
2021/12/24 04:08:42;;;;;;;24.98;15.13;;;;;;;;;;5048044;28;20040;-81
2021/12/24 04:11:08;;;;;;;25.30;14.73;;;;;;;;;;5027735;28;20080;-81
2021/12/24 04:13:34;;;;;;;25.02;14.45;;;;;;;;;;5045816;28;20108;-81
2021/12/24 04:16:01;;;;;;;25.67;15.95;;;;;;;;;;5045029;28;20029;-80
2021/12/24 04:18:41;;;;;;;23.98;14.75;;;;;;;;;;5047563;28;20021;-82
2021/12/24 04:26:37;;;;;;;27.58;16.50;;;;;;;;;;5050005;28;20041;-80
2021/12/24 04:29:04;;;;;;;32.10;17.85;;;;;;;;;;5048360;28;20446;-81
2021/12/24 04:31:47;;;;;;;28.33;17.02;;;;;;;;;;5033058;28;20037;-84
2021/12/24 04:34:14;;;;;;;31.65;17.50;;;;;;;;;;5034286;28;20098;-82
2021/12/24 05:01:10;;;;;;;32.25;19.00;;;;;;;;;;5048762;28;20032;-84
2021/12/24 05:01:22;;;;;;;32.70;18.63;;;;;;;;;;5048626;28;20030;-85
2021/12/24 05:03:48;;;;;;;29.58;18.25;;;;;;;;;;5031530;28;20029;-82
2021/12/24 05:06:28;;;;;;;32.90;18.17;;;;;;;;;;5031146;28;20033;-82
2021/12/24 05:08:58;;;;;;;35.33;18.83;;;;;;;;;;5031310;28;20027;-81
2021/12/24 05:11:24;;;;;;;34.58;20.27;;;;;;;;;;5053234;28;20089;-78
2021/12/24 05:13:51;;;;;;;34.35;19.73;;;;;;;;;;5058398;28;20041;-82
2021/12/24 05:16:23;;;;;;;32.88;18.35;;;;;;;;;;5051638;28;20040;-83
2021/12/24 05:21:35;;;;;;;34.75;17.77;;;;;;;;;;5048981;28;20229;-82
2021/12/24 05:24:03;;;;;;;30.67;17.42;;;;;;;;;;5054441;28;20013;-80
2021/12/24 05:26:29;;;;;;;36.50;18.77;;;;;;;;;;5042021;28;20039;-81
2021/12/24 05:28:56;;;;;;;30.92;17.90;;;;;;;;;;5039299;28;20021;-81
2021/12/24 05:31:23;;;;;;;30.20;18.05;;;;;;;;;;5051746;28;20013;-84
2021/12/24 05:33:49;;;;;;;31.05;17.48;;;;;;;;;;5060955;28;20032;-81
2021/12/24 05:36:15;;;;;;;29.13;16.67;;;;;;;;;;5078389;28;20092;-83
2021/12/24 05:38:41;;;;;;;29.40;16.58;;;;;;;;;;5053161;28;20033;-84
2021/12/24 05:41:07;;;;;;;27.20;14.90;;;;;;;;;;5060568;28;20094;-82
2021/12/24 05:43:33;;;;;;;24.00;14.73;;;;;;;;;;5043402;28;20505;-83
2021/12/24 05:45:59;;;;;;;24.13;13.65;;;;;;;;;;5042136;28;20025;-83
2021/12/24 05:48:25;;;;;;;20.45;12.07;;;;;;;;;;5076380;28;20128;-83
2021/12/24 05:50:51;;;;;;;14.68;8.75;;;;;;;;;;5070488;28;20560;-86
2021/12/24 05:53:17;;;;;;;14.77;7.65;;;;;;;;;;5047441;28;20135;-84
2021/12/24 05:55:43;;;;;;;14.63;8.25;;;;;;;;;;5050100;28;20032;-84
2021/12/24 05:58:09;;;;;;;11.32;5.85;;;;;;;;;;5051954;28;20033;-83
2021/12/24 06:00:38;;;;;;;9.98;6.07;;;;;;;;;;5054254;28;20025;-82
2021/12/24 06:03:04;;;;;;;11.45;5.97;;;;;;;;;;5068016;28;20025;-84
2021/12/24 06:05:30;;;;;;;9.80;5.88;;;;;;;;;;5056237;28;20013;-83
2021/12/24 06:07:56;;;;;;;9.60;6.25;;;;;;;;;;5057258;28;20028;-85
2021/12/24 06:10:22;;;;;;;11.43;6.40;;;;;;;;;;5053556;28;20394;-82
2021/12/24 06:12:48;;;;;;;10.10;6.05;;;;;;;;;;5054044;28;20083;-83
2021/12/24 06:15:16;;;;;;;9.98;6.00;;;;;;;;;;5052260;28;20092;-82
2021/12/24 06:17:42;;;;;;;9.20;5.50;;;;;;;;;;5063605;28;20020;-80
2021/12/24 06:20:12;;;;;;;10.60;6.38;;;5.00;99.90;;;;;;5072388;28;20033;-82
2021/12/24 06:22:37;;;;;;;12.43;6.97;;;5.20;99.90;;;;;;5076530;28;20078;-82
2021/12/24 06:25:04;;;;;;;12.00;6.35;;;5.20;99.90;;;;;;5063536;28;20063;-81
2021/12/24 06:27:30;;;;;;;14.77;7.15;;;5.00;99.90;;;;;;5067519;28;20048;-82
2021/12/24 06:29:55;;;;;;;20.88;9.98;;;5.00;99.90;;;;;;5070325;28;20017;-83
2021/12/24 06:32:21;;;;;;;15.70;7.97;;;5.10;99.90;;;;;;5073170;28;20059;-82
2021/12/24 06:34:49;;;;;;;12.27;7.03;;;4.90;99.90;;;;;;5058104;28;20113;-82
2021/12/24 06:37:15;;;;;;;13.50;7.15;;;;;;;;;;5075765;28;20016;-83
2021/12/24 06:39:41;;;;;;;13.57;7.00;;;;;;;;;;5050900;28;20025;-82
2021/12/24 06:42:07;;;;;;;13.55;6.85;;;;;;;;;;5066658;28;20088;-83
2021/12/24 06:44:33;;;;;;;12.32;6.47;;;;;;;;;;5066248;28;20029;-81
2021/12/24 06:46:59;;;;;;;14.13;7.88;;;;;;;;;;5047296;28;20084;-83
2021/12/24 06:49:25;;;;;;;16.70;8.05;;;;;;;;;;5045164;28;20025;-81
2021/12/24 06:51:51;;;;;;;14.75;7.72;;;;;;;;;;5063821;28;20032;-81
2021/12/24 06:54:17;;;;;;;12.20;7.38;;;;;;;;;;5046847;28;20040;-84
2021/12/24 06:56:44;;;;;;;13.98;7.30;;;;;;;;;;5052984;28;20021;-83
2021/12/24 06:59:10;;;;;;;17.92;8.30;;;;;;;;;;5076383;28;20025;-83
2021/12/24 07:01:36;;;;;;;17.80;8.45;;;;;;;;;;5046211;28;20336;-84
2021/12/24 07:04:03;;;;;;;12.25;7.45;;;;;;;;;;5050876;28;20021;-84
2021/12/24 07:06:29;;;;;;;15.75;7.78;;;;;;;;;;5071348;28;20025;-84
2021/12/24 07:08:55;;;;;;;13.73;7.78;;;;;;;;;;5069900;28;20071;-82
2021/12/24 07:11:21;;;;;;;16.83;8.38;;;;;;;;;;5063085;28;20094;-84
2021/12/24 07:13:47;;;;;;;18.17;8.10;;;;;;;;;;5050841;28;20039;-82
2021/12/24 07:16:13;;;;;;;15.57;8.32;;;;;;;;;;5064723;28;20056;-81
2021/12/24 07:18:40;;;;;;;16.30;7.95;;;;;;;;;;5063672;28;20036;-83
2021/12/24 07:21:06;;;;;;;17.35;9.73;;;;;;;;;;5057369;28;20024;-83
2021/12/24 07:23:32;;;;;;;16.00;8.32;;;;;;;;;;5049649;28;20028;-84
2021/12/24 07:25:58;;;;;;;17.20;9.15;;;;;;;;;;5051107;28;20104;-81
2021/12/24 07:28:24;;;;;;;18.65;9.50;;;;;;;;;;5053596;28;20088;-83
2021/12/24 07:30:50;;;;;;;16.25;9.25;;;;;;;;;;5054795;28;20116;-83
2021/12/24 07:33:16;;;;;;;17.35;8.63;;;;;;;;;;5063093;28;20080;-84
2021/12/24 07:35:43;;;;;;;16.70;8.48;;;;;;;;;;5056815;28;20025;-83
2021/12/24 07:38:13;;;;;;;16.70;8.25;;;;;;;;;;5056887;28;20024;-82
2021/12/24 07:40:39;;;;;;;17.00;8.82;;;;;;;;;;5057452;28;20031;-82
2021/12/24 07:43:05;;;;;;;15.75;9.38;;;;;;;;;;5057257;28;20352;-82
2021/12/24 07:45:31;;;;;;;15.77;8.85;;;;;;;;;;5039416;28;20509;-79
2021/12/24 07:48:10;;;;;;;15.18;7.82;;;;;;;;;;5038931;28;20386;-81
2021/12/24 07:53:04;;;;;;;16.30;8.70;;;;;;;;;;5057227;28;20025;-78
2021/12/24 07:55:30;;;;;;;16.40;8.55;;;;;;;;;;5056050;28;20471;-78
2021/12/24 07:57:56;;;;;;;15.20;8.23;;;;;;;;;;5060095;28;20039;-80
2021/12/24 08:00:25;;;;;;;19.27;8.75;;;;;;;;;;5042280;28;20021;-78
2021/12/24 08:02:51;;;;;;;16.50;8.23;;;;;;;;;;5060895;28;20433;-79
2021/12/24 08:05:21;;;;;;;13.25;7.15;;;;;;;;;;5057518;28;20078;-75
2021/12/24 08:07:47;;;;;;;17.58;9.23;;;;;;;;;;5057742;28;20446;-82
2021/12/24 08:10:13;;;;;;;15.88;8.25;;;;;;;;;;5058221;28;20040;-79
2021/12/24 08:12:39;;;;;;;15.20;8.27;;;;;;;;;;5056807;28;20036;-79
2021/12/24 08:15:06;;;;;;;11.85;7.30;;;;;;;;;;5060855;28;20093;-78
2021/12/24 08:17:32;;;;;;;14.75;8.18;;;;;;;;;;5061061;28;20017;-81
2021/12/24 08:19:58;;;;;;;13.25;6.93;;;;;;;;;;5043299;28;20044;-81
2021/12/24 08:22:25;;;;;;;14.65;8.05;;;;;;;;;;5060516;28;20029;-81
2021/12/24 08:24:51;;;;;;;12.05;7.35;;;;;;;;;;5060585;28;20398;-80
2021/12/24 08:27:17;;;;;;;12.65;7.78;;;;;;;;;;5044268;28;20009;-79
2021/12/24 08:29:43;;;;;;;14.57;8.43;;;;;;;;;;5070346;28;20033;-79
2021/12/24 08:32:09;;;;;;;12.93;7.65;;;;;;;;;;5067799;28;20079;-80
2021/12/24 08:34:35;;;;;;;14.07;7.90;;;;;;;;;;5056129;28;20032;-78
2021/12/24 08:37:01;;;;;;;13.77;8.20;;;;;;;;;;5039775;28;20022;-78
2021/12/24 08:39:28;;;;;;;14.40;7.85;;;;;;;;;;5020789;28;20025;-76
2021/12/24 08:41:54;;;;;;;13.18;8.07;;;;;;;;;;5048272;28;20033;-78
2021/12/24 08:44:24;;;;;;;15.43;8.30;;;;;;;;;;5032058;28;20033;-80
2021/12/24 08:46:50;;;;;;;12.52;7.82;;;;;;;;;;5030763;28;20010;-79
2021/12/24 08:49:16;;;;;;;12.75;7.72;;;;;;;;;;5050445;28;20085;-78
2021/12/24 08:51:42;;;;;;;16.38;8.80;;;;;;;;;;5042368;28;20010;-77
2021/12/24 08:54:08;;;;;;;14.25;8.73;;;;;;;;;;5059754;28;20055;-76
2021/12/24 08:56:34;;;;;;;12.93;8.10;;;;;;;;;;5056369;28;20081;-78
2021/12/24 08:59:00;;;;;;;14.55;8.65;;;;;;;;;;5035983;28;20022;-80
2021/12/24 09:01:26;;;;;;;14.73;9.15;;;;;;;;;;5055584;28;20056;-79
2021/12/24 09:03:52;;;;;;;12.98;8.65;;;;;;;;;;5037524;28;20128;-79
2021/12/24 09:06:18;;;;;;;13.98;8.73;;;;;;;;;;5055541;28;20073;-77
2021/12/24 09:08:44;;;;;;;12.52;7.85;;;;;;;;;;5039629;28;20029;-78
2021/12/24 09:11:10;;;;;;;14.00;8.30;;;;;;;;;;5055424;28;20033;-79
2021/12/24 09:13:37;;;;;;;11.75;8.07;;;;;;;;;;5033301;28;20451;-80
2021/12/24 09:16:03;;;;;;;14.60;8.93;;;;;;;;;;5026013;28;20033;-80
2021/12/24 09:18:29;;;;;;;14.50;8.65;;;;;;;;;;5046264;28;20021;-78
2021/12/24 09:21:00;;;;;;;14.70;8.88;;;;;;;;;;5034871;28;20009;-79
2021/12/24 09:23:26;;;;;;;14.23;8.98;;;;;;;;;;5037102;28;20049;-80
2021/12/24 09:25:52;;;;;;;14.25;8.90;;;;;;;;;;5033433;28;20063;-80
2021/12/24 09:28:18;;;;;;;14.88;9.25;;;;;;;;;;5044093;28;20201;-82
2021/12/24 09:30:44;;;;;;;12.43;8.65;;;;;;;;;;5046118;28;20053;-82
2021/12/24 09:33:10;;;;;;;11.93;8.18;;;;;;;;;;5033805;28;20410;-82
2021/12/24 09:35:36;;;;;;;15.05;9.60;;;;;;;;;;5050252;28;20044;-81
2021/12/24 09:38:02;;;;;;;14.02;9.05;;;;;;;;;;5055087;28;20033;-78
2021/12/24 09:40:29;;;;;;;14.45;8.93;;;;;;;;;;5058782;28;20048;-78
2021/12/24 09:42:55;;;;;;;14.48;8.88;;;;;;;;;;5059330;28;20055;-77
2021/12/24 09:45:21;;;;;;;13.80;8.48;;;;;;;;;;5058443;28;20017;-77
2021/12/24 09:47:47;;;;;;;15.95;9.75;;;;;;;;;;5058448;28;20017;-78
2021/12/24 09:50:15;;;;;;;13.55;8.43;;;;;;;;;;5058951;28;20028;-79
2021/12/24 09:52:44;;;;;;;14.68;8.93;;;;;;;;;;5058840;28;20077;-76
2021/12/24 09:55:11;;;;;;;13.63;8.48;;;;;;;;;;5058929;28;20083;-78
2021/12/24 09:57:37;;;;;;;31.05;15.60;;;;;;;;;;5040270;28;20099;-79
2021/12/24 10:00:05;;;;;;;19.85;11.90;;;;;;;;;;5035676;28;20022;-79
2021/12/24 10:02:57;;;;;;;24.77;12.45;;;;;;;;;;5057845;28;20032;-79
2021/12/24 10:05:39;;;;;;;15.48;9.60;;;;;;;;;;5051748;28;20026;-79
2021/12/24 10:08:15;;;;;;;15.23;9.80;;;;;;;;;;5032762;28;20055;-79
2021/12/24 10:10:43;;;;;;;16.23;10.10;;;;;;;;;;5049125;28;20081;-77
2021/12/24 10:13:25;;;;;;;15.57;9.77;;;;;;;;;;5053823;28;20025;-77
2021/12/24 10:15:52;;;;;;;17.27;10.35;;;;;;;;;;5049044;28;20083;-80
2021/12/24 10:18:31;;;;;;;15.25;10.10;;;;;;;;;;5042492;28;20026;-80
2021/12/24 10:21:06;;;;;;;18.30;10.48;;;;;;;;;;5025502;28;20017;-78
2021/12/24 10:23:39;;;;;;;20.08;11.07;;;;;;;;;;5043942;28;20018;-80
2021/12/24 10:26:18;;;;;;;20.05;11.77;;;;;;;;;;5025229;28;20022;-79
2021/12/24 10:28:59;;;;;;;19.50;10.73;;;;;;;;;;5025565;28;20089;-79
2021/12/24 10:31:28;;;;;;;16.92;10.02;;;;;;;;;;5050336;28;20018;-78
2021/12/24 10:34:06;;;;;;;17.25;9.98;;;;;;;;;;5037178;28;20113;-78
2021/12/24 10:36:32;;;;;;;16.25;9.32;;;;;;;;;;5048810;28;20530;-79
2021/12/24 10:38:58;;;;;;;14.55;9.20;;;;;;;;;;5043632;28;20056;-82
2021/12/24 10:41:25;;;;;;;14.95;9.73;;;;;;;;;;5045518;28;20017;-81
2021/12/24 10:43:52;;;;;;;20.02;9.40;;;;;;;;;;5046575;28;20029;-79
2021/12/24 10:46:25;;;;;;;21.60;10.82;;;;;;;;;;5046659;28;20033;-82
2021/12/24 10:49:02;;;;;;;23.45;12.85;;;;;;;;;;5025843;28;20037;-82
2021/12/24 10:51:54;;;;;;;17.95;11.00;;;;;;;;;;5027528;28;20037;-82
2021/12/24 10:54:18;;;;;;;19.58;11.32;;;;;;;;;;5041026;28;20041;-80
2021/12/24 10:56:44;;;;;;;18.00;11.00;;;;;;;;;;5040696;28;20019;-82
2021/12/24 10:59:12;;;;;;;22.70;11.55;;;;;;;;;;5043093;28;20053;-82
2021/12/24 11:01:38;;;;;;;21.25;11.43;;;;;;;;;;5027189;28;20026;-80
2021/12/24 11:04:04;;;;;;;22.55;13.80;;;;;;;;;;5044482;28;20484;-81
2021/12/24 11:06:33;;;;;;;23.95;14.85;;;;;;;;;;5026400;28;20025;-82
2021/12/24 11:09:00;;;;;;;25.73;13.48;;;;;;;;;;5045976;28;20032;-81
2021/12/24 11:11:35;;;;;;;24.25;13.10;;;;;;;;;;5046624;28;20091;-79
2021/12/24 11:14:01;;;;;;;24.88;14.18;;;;;;;;;;5046653;28;20044;-82
2021/12/24 11:16:27;;;;;;;23.27;13.75;;;;;;;;;;5044418;28;20084;-80
2021/12/24 11:18:58;;;;;;;24.17;14.50;;;;;;;;;;5031038;28;20030;-81
2021/12/24 11:21:25;;;;;;;22.45;13.45;;;;;;;;;;5029065;28;20096;-81
2021/12/24 11:23:51;;;;;;;22.13;12.90;;;;;;;;;;5048383;28;20022;-81
2021/12/24 11:26:19;;;;;;;22.13;13.35;;;;;;;;;;5049730;28;20039;-81
2021/12/24 11:28:45;;;;;;;20.98;13.00;;;;;;;;;;5029762;28;20018;-79
2021/12/24 11:31:19;;;;;;;22.88;14.05;;;;;;;;;;5056624;28;20101;-79
2021/12/24 11:33:46;;;;;;;24.90;13.65;;;;;;;;;;5033746;28;20029;-83
2021/12/24 11:36:12;;;;;;;22.58;13.70;;;;;;;;;;5027997;28;20026;-83
2021/12/24 11:38:41;;;;;;;27.42;14.45;;;;;;;;;;5028460;28;20080;-81
2021/12/24 11:41:11;;;;;;;33.88;17.90;;;;;;;;;;5025810;28;20037;-82
2021/12/24 11:43:38;;;;;;;26.88;14.60;;;;;;;;;;5046498;28;20024;-80
2021/12/24 11:46:06;;;;;;;28.98;15.80;;;;;;;;;;5044712;28;20502;-80
2021/12/24 11:48:33;;;;;;;28.70;15.98;;;;;;;;;;5043414;28;20025;-78
2021/12/24 11:51:04;;;;;;;28.05;15.88;;;;;;;;;;5046054;28;20048;-80
2021/12/24 11:53:33;;;;;;;32.30;19.10;;;;;;;;;;5047689;28;20026;-79
2021/12/24 11:56:03;;;;;;;33.13;17.13;;;;;;;;;;5053033;28;20016;-78
2021/12/24 11:58:32;;;;;;;32.45;17.10;;;;;;;;;;5054595;28;20060;-81
2021/12/24 12:00:58;;;;;;;28.98;15.98;;;;;;;;;;5052616;28;20017;-80
2021/12/24 12:03:32;;;;;;;33.95;18.50;;;;;;;;;;5033350;28;20021;-78
2021/12/24 12:05:58;;;;;;;30.30;17.23;;;;;;;;;;5054842;28;20045;-79
2021/12/24 12:08:27;;;;;;;34.53;18.77;;;;;;;;;;5037878;28;20080;-78
2021/12/24 12:10:59;;;;;;;51.20;23.75;;;;;;;;;;5052814;28;20041;-79
2021/12/24 12:13:54;;;;;;;43.53;20.77;;;;;;;;;;5028390;28;20028;-79
2021/12/24 12:16:20;;;;;;;35.33;18.13;;;;;;;;;;5031609;28;20460;-78
2021/12/24 12:19:03;;;;;;;35.42;19.98;;;;;;;;;;5028198;28;20021;-80
2021/12/24 12:21:40;;;;;;;31.85;18.52;;;;;;;;;;5049745;28;20021;-77
2021/12/24 12:26:43;;;;;;;33.08;19.20;;;;;;;;;;5049724;28;20032;-77
2021/12/24 12:29:29;;;;;;;30.45;17.77;;;;;;;;;;5045145;28;20029;-78
2021/12/24 12:32:04;;;;;;;36.10;19.75;;;;;;;;;;5024267;28;20028;-78
2021/12/24 12:34:36;;;;;;;35.83;19.80;;;;;;;;;;5045971;28;20105;-78
2021/12/24 12:37:12;;;;;;;31.23;18.75;;;;;;;;;;5034150;28;20072;-80
2021/12/24 12:39:38;;;;;;;32.55;19.05;;;;;;;;;;5037837;28;20132;-79
2021/12/24 12:42:04;;;;;;;33.17;19.15;;;;;;;;;;5055177;28;20434;-77
2021/12/24 12:44:32;;;;;;;36.53;19.63;;;;;;;;;;5056392;28;20073;-78
2021/12/24 12:47:11;;;;;;;35.97;20.25;;;;;;;;;;5036415;28;20075;-79
2021/12/24 12:49:37;;;;;;;39.60;20.35;;;;;;;;;;5054466;28;20085;-77
2021/12/24 12:52:10;;;;;;;37.95;20.73;;;;;;;;;;5037644;28;20056;-78
2021/12/24 12:54:36;;;;;;;37.90;20.95;;;;;;;;;;5029773;28;20082;-79
2021/12/24 12:57:16;;;;;;;38.13;21.10;;;;;;;;;;5047577;28;20074;-78
2021/12/24 13:00:03;;;;;;;39.33;22.45;;;;;;;;;;5029525;28;20021;-78
2021/12/24 13:02:47;;;;;;;40.08;22.02;;;;;;;;;;5044032;28;20030;-78
2021/12/24 13:05:13;;;;;;;38.85;21.92;;;;;;;;;;5045708;28;20021;-79
2021/12/24 13:07:39;;;;;;;41.53;22.92;;;;;;;;;;5046763;28;20072;-78
2021/12/24 13:10:05;;;;;;;50.63;26.30;;;;;;;;;;5028309;28;20033;-79
2021/12/24 13:12:31;;;;;;;37.42;21.67;;;;;;;;;;5043832;28;20029;-79
2021/12/24 13:15:01;;;;;;;34.67;20.00;;;;;;;;;;5026641;28;20060;-78
2021/12/24 13:17:35;;;;;;;32.78;19.58;;;;;;;;;;5025243;28;20060;-78
2021/12/24 13:20:14;;;;;;;31.15;18.77;;;;;;;;;;5024524;28;20037;-79
2021/12/24 13:22:40;;;;;;;34.72;18.23;;;;;;;;;;5027205;28;20021;-79
2021/12/24 13:25:17;;;;;;;33.22;18.45;;;;;;;;;;5052177;28;20025;-79
2021/12/24 13:27:47;;;;;;;36.00;18.83;;;;;;;;;;5054425;28;20059;-78
2021/12/24 13:30:21;;;;;;;35.17;19.42;;;;;;;;;;5037120;28;20026;-79
2021/12/24 13:32:47;;;;;;;32.47;18.88;;;;;;;;;;5027525;28;20068;-80
2021/12/24 13:35:15;;;;;;;36.42;20.50;;;;;;;;;;5049985;28;20029;-77
2021/12/24 13:37:45;;;;;;;36.53;20.38;;;;;;;;;;5037330;28;20435;-78
2021/12/24 13:40:12;;;;;;;37.33;20.27;;;;;;;;;;5051357;28;20021;-76
2021/12/24 13:42:42;;;;;;;40.38;21.23;;;;;;;;;;5034217;28;20045;-77
2021/12/24 13:45:09;;;;;;;40.97;21.50;;;;;;;;;;5054645;28;20077;-78
2021/12/24 13:47:55;;;;;;;38.88;20.98;;;;;;;;;;5044451;28;20029;-79
2021/12/24 13:55:35;;;;;;;42.15;21.63;;;;;;;;;;5040838;28;20677;-78
2021/12/24 13:58:03;;;;;;;34.75;19.88;;;;;;;;;;5031458;28;20175;-79
2021/12/24 14:00:29;;;;;;;41.28;21.17;;;;;;;;;;5029993;28;20402;-79
2021/12/24 14:03:01;;;;;;;45.13;22.77;;;;;;;;;;5028632;28;20044;-79
2021/12/24 14:05:27;;;;;;;41.03;21.55;;;;;;;;;;5029536;28;20021;-80
2021/12/24 14:08:04;;;;;;;41.35;21.08;;;;;;;;;;5050614;28;20044;-79
2021/12/24 14:10:30;;;;;;;44.00;22.67;;;;;;;;;;5035857;28;20052;-78
2021/12/24 14:13:03;;;;;;;43.50;22.00;;;;;;;;;;5053632;28;20018;-78
2021/12/24 14:15:30;;;;;;;48.13;23.38;;;;;;;;;;5037841;28;20055;-78
2021/12/24 14:18:19;;;;;;;54.08;25.17;;;;;;;;;;5027790;28;20057;-79
2021/12/24 14:21:44;;;;;;;46.22;23.45;;;;;;;;;;5044120;28;20032;-81
2021/12/24 14:23:34;;;;;;;47.67;22.70;;;;;;;;;;5043021;28;20057;-78
2021/12/24 14:26:01;;;;;;;48.53;23.50;;;;;;;;;;5025687;28;20037;-79
2021/12/24 14:28:27;;;;;;;53.65;23.75;;;;;;;;;;5049958;28;20084;-78
2021/12/24 14:31:04;;;;;;;54.03;25.80;;;;;;;;;;5029801;28;20029;-79
2021/12/24 14:33:35;;;;;;;56.55;24.30;;;;;;;;;;5025695;28;20443;-80
2021/12/24 14:36:01;;;;;;;70.22;32.58;;;;;;;;;;5046896;28;20040;-79
2021/12/24 14:38:27;;;;;;;88.80;42.30;;;;;;;;;;5043974;28;20491;-81
2021/12/24 14:41:00;;;;;;;58.42;29.27;;;;;;;;;;5047322;28;20038;-78
2021/12/24 14:43:32;;;;;;;60.90;29.83;;;;;;;;;;5046879;28;20027;-80
2021/12/24 14:45:58;;;;;;;56.63;29.63;;;;;;;;;;5046202;28;20086;-78
2021/12/24 14:48:25;;;;;;;82.13;41.95;;;;;;;;;;5045429;28;20017;-80
2021/12/24 14:50:56;;;;;;;72.07;36.10;;;;;;;;;;5048052;28;20022;-78
2021/12/24 14:53:33;;;;;;;40.17;17.60;;;;;;;;;;5030332;28;20021;-81
2021/12/24 14:56:00;;;;;;;38.80;15.70;;;;;;;;;;5043025;28;20213;-80
2021/12/24 14:58:29;;;;;;;30.85;13.52;;;;;;;;;;5042669;28;20025;-80
2021/12/24 15:00:55;;;;;;;85.68;47.22;;;;;;;;;;5042922;28;20022;-80
2021/12/24 15:03:23;;;;;;;42.80;22.13;;;;;;;;;;5052241;28;20022;-80
2021/12/24 15:05:50;;;;;;;28.25;12.68;;;;;;;;;;5051787;28;20032;-82
2021/12/24 15:08:16;;;;;;;26.63;10.23;;;;;;;;;;5043637;28;20044;-80
2021/12/24 15:11:18;;;;;;;30.00;9.30;;;;;;;;;;5041883;28;20026;-79
2021/12/24 15:13:46;;;;;;;19.80;7.80;;;;;;;;;;4959104;29;20031;-78
2021/12/24 15:16:16;;;;;;;30.77;8.68;;;;;;;;;;5025478;28;20049;-79
2021/12/24 15:18:42;;;;;;;20.23;6.63;;;;;;;;;;5041998;28;20052;-78
2021/12/24 15:21:08;;;;;;;15.27;5.07;;;;;;;;;;5023971;28;20081;-79
2021/12/24 15:23:34;;;;;;;19.30;4.60;;;;;;;;;;5041372;28;20048;-80
2021/12/24 15:26:01;;;;;;;20.88;4.80;;;;;;;;;;5022987;28;20055;-80
2021/12/24 15:28:27;;;;;;;15.15;3.85;;;;;;;;;;5025114;28;20026;-78
2021/12/24 15:30:55;;;;;;;15.93;3.08;;;;;;;;;;5024426;28;20099;-82
2021/12/24 15:33:22;;;;;;;17.05;3.25;;;;;;;;;;5022271;28;20033;-78
2021/12/24 15:35:50;;;;;;;10.38;2.97;;;;;;;;;;5042816;28;20057;-78
2021/12/24 15:38:16;;;;;;;10.07;2.42;;;;;;;;;;5043136;28;20025;-80
2021/12/24 15:40:42;;;;;;;5.90;1.75;;;;;;;;;;5041907;28;20033;-79
2021/12/24 15:43:09;;;;;;;11.27;1.98;;;;;;;;;;5024225;28;20030;-80
2021/12/24 15:45:36;;;;;;;10.73;1.77;;;;;;;;;;5041032;28;20394;-79
2021/12/24 15:48:02;;;;;;;18.75;2.25;;;;;;;;;;5041532;28;20113;-77
2021/12/24 15:50:28;;;;;;;9.70;1.83;;;;;;;;;;5023735;28;20041;-79
2021/12/24 15:52:55;;;;;;;9.65;2.50;;;;;;;;;;5042957;28;20515;-79
2021/12/24 15:55:21;;;;;;;10.32;1.95;;;;;;;;;;5024101;28;20032;-78
2021/12/24 15:57:47;;;;;;;12.18;2.30;;;;;;;;;;5023961;28;20089;-78
2021/12/24 16:00:13;;;;;;;11.80;1.88;;;;;;;;;;5046635;28;20032;-81
2021/12/24 16:02:39;;;;;;;19.42;3.08;;;;;;;;;;5046788;28;20026;-80
2021/12/24 16:05:06;;;;;;;12.43;2.47;;;;;;;;;;5031096;28;20037;-81
2021/12/24 16:07:32;;;;;;;15.00;2.53;;;;;;;;;;5031424;28;20033;-78
2021/12/24 16:09:58;;;;;;;13.10;2.50;;;;;;;;;;5033367;28;20051;-79